WSSS/SIN METAR and TAF weather

Enter ICAO airport designator
Station Type Date Time Source
WSSS METAR 2020/10/22 03:00 UTC NOAA

WSSS 220300Z 29006KT 240V340 9999 FEW018 SCT140 BKN270 27/22 Q1011 NOSIG


Station Type Date Time Source
WSSS Decoded METAR 2020/10/22 03:00 UTC NOAA

Singapore / Changi Airport, Singapore (WSSS) 01-22N 103-59E 16M
Oct 21, 2020 - 11:00 PM EDT / 2020.10.22 0300 UTC
Wind: from the WNW (290 degrees) at 7 MPH (6 KT) (direction variable):0
Visibility: greater than 7 mile(s):0
Sky conditions: mostly cloudy
Temperature: 80 F (27 C)
Dew Point: 71 F (22 C)
Relative Humidity: 74%
Pressure (altimeter): 29.85 in. Hg (1011 hPa)
ob: WSSS 220300Z 29006KT 240V340 9999 FEW018 SCT140 BKN270 27/22 Q1011 NOSIG
cycle: 3

Station Type Date Time Source
WSSS TAF 2020/10/21 18:07 UTC NOAA

TAF WSSS 211700Z 2118/2300 27007KT 9999 FEW015 SCT020

Example: see airport list